Time,TemperatureF,DewpointF,PressureIn,WindDirection,WindDirectionDegrees,WindSpeedMPH,WindSpeedGustMPH,Humidity,HourlyPrecipIn,Conditions,Clouds,dailyrainin,SoftwareType,DateUTC
2013-01-21 00:03:00,24.0,-2.0,-100.00,NE,50,11.0,17.0,31,0.00,,,-99.99,,2013-01-21 07:03:00,
2013-01-21 00:12:00,24.0,-2.0,-100.00,NE,50,11.0,17.0,31,0.00,,,-99.99,,2013-01-21 07:12:00,
2013-01-21 00:22:00,24.0,-2.0,-100.00,ENE,60,17.0,21.0,31,0.00,,,-99.99,,2013-01-21 07:22:00,
2013-01-21 00:33:00,24.0,-2.0,-100.00,NE,45,15.0,32.0,31,0.00,,,-99.99,,2013-01-21 07:33:00,
2013-01-21 00:42:00,23.0,-3.0,-100.00,NNE,25,16.0,21.0,31,0.00,,,-99.99,,2013-01-21 07:42:00,
2013-01-21 00:53:00,23.0,-2.0,-100.00,NE,55,14.0,20.0,31,0.00,,,-99.99,,2013-01-21 07:53:00,
2013-01-21 01:03:00,23.0,-2.0,-100.00,ENE,60,13.0,19.0,31,0.00,,,-99.99,,2013-01-21 08:03:00,
2013-01-21 01:13:00,23.0,-3.0,-100.00,NE,35,14.0,22.0,31,0.00,,,-99.99,,2013-01-21 08:13:00,
2013-01-21 01:22:00,23.0,-3.0,-100.00,NNE,30,13.0,23.0,31,0.00,,,-99.99,,2013-01-21 08:22:00,
2013-01-21 01:32:00,23.0,-3.0,-100.00,NE,35,13.0,19.0,31,0.00,,,-99.99,,2013-01-21 08:32:00,
2013-01-21 01:42:00,24.0,-2.0,-100.00,NE,50,13.0,18.0,31,0.00,,,-99.99,,2013-01-21 08:42:00,
2013-01-21 01:53:00,22.0,-3.0,-100.00,NE,50,12.0,16.0,31,0.00,,,-99.99,,2013-01-21 08:53:00,
2013-01-21 02:02:00,21.0,-4.0,-100.00,NE,35,11.0,16.0,32,0.00,,,-99.99,,2013-01-21 09:02:00,
2013-01-21 02:12:00,22.0,-3.0,-100.00,NNE,25,14.0,18.0,32,0.00,,,-99.99,,2013-01-21 09:12:00,
2013-01-21 02:22:00,22.0,-3.0,-100.00,NE,45,12.0,18.0,32,0.00,,,-99.99,,2013-01-21 09:22:00,
2013-01-21 02:33:00,21.0,-3.0,-100.00,NE,40,14.0,20.0,32,0.00,,,-99.99,,2013-01-21 09:33:00,
2013-01-21 02:42:00,21.0,-4.0,-100.00,ENE,65,6.0,20.0,32,0.00,,,-99.99,,2013-01-21 09:42:00,
2013-01-21 02:52:00,22.0,-3.0,-100.00,ENE,65,12.0,19.0,32,0.00,,,-99.99,,2013-01-21 09:52:00,
2013-01-21 03:02:00,21.0,-4.0,-100.00,NE,55,12.0,20.0,32,0.00,,,-99.99,,2013-01-21 10:02:00,
2013-01-21 03:12:00,21.0,-4.0,-100.00,NE,40,11.0,21.0,32,0.00,,,-99.99,,2013-01-21 10:12:00,
2013-01-21 03:22:00,19.0,-5.0,-100.00,North,0,3.0,19.0,33,0.00,,,-99.99,,2013-01-21 10:22:00,
2013-01-21 03:32:00,20.0,-4.0,-100.00,NNE,15,12.0,18.0,33,0.00,,,-99.99,,2013-01-21 10:32:00,
2013-01-21 03:43:00,21.0,-4.0,-100.00,NE,35,17.0,22.0,33,0.00,,,-99.99,,2013-01-21 10:43:00,
2013-01-21 03:52:00,19.0,-5.0,-100.00,NNE,15,6.0,19.0,33,0.00,,,-99.99,,2013-01-21 10:52:00,
2013-01-21 04:02:00,19.0,-5.0,-100.00,NNE,25,4.0,11.0,33,0.00,,,-99.99,,2013-01-21 11:02:00,
2013-01-21 04:13:00,19.0,-5.0,-100.00,North,10,10.0,15.0,33,0.00,,,-99.99,,2013-01-21 11:13:00,
2013-01-21 04:23:00,19.0,-5.0,-100.00,NNE,15,6.0,11.0,33,0.00,,,-99.99,,2013-01-21 11:23:00,
2013-01-21 04:33:00,18.0,-5.0,-100.00,NNW,330,6.0,9.0,33,0.00,,,-99.99,,2013-01-21 11:33:00,
2013-01-21 04:42:00,18.0,-6.0,-100.00,West,265,6.0,9.0,33,0.00,,,-99.99,,2013-01-21 11:42:00,
2013-01-21 04:53:00,16.0,-7.0,-100.00,NW,325,4.0,9.0,33,0.00,,,-99.99,,2013-01-21 11:53:00,
2013-01-21 05:02:00,16.0,-7.0,-100.00,NW,325,4.0,9.0,33,0.00,,,-99.99,,2013-01-21 12:02:00,
2013-01-21 05:12:00,18.0,-6.0,-100.00,NNE,20,3.0,5.0,33,0.00,,,-99.99,,2013-01-21 12:12:00,
2013-01-21 05:22:00,18.0,-6.0,-100.00,North,5,4.0,9.0,33,0.00,,,-99.99,,2013-01-21 12:22:00,
2013-01-21 05:32:00,18.0,-5.0,-100.00,ENE,70,4.0,12.0,33,0.00,,,-99.99,,2013-01-21 12:32:00,
2013-01-21 05:42:00,19.0,-5.0,-100.00,NE,35,12.0,17.0,33,0.00,,,-99.99,,2013-01-21 12:42:00,
2013-01-21 05:52:00,19.0,-5.0,-100.00,NE,35,12.0,15.0,33,0.00,,,-99.99,,2013-01-21 12:52:00,
2013-01-21 06:02:00,18.0,-5.0,-100.00,NNE,25,11.0,14.0,33,0.00,,,-99.99,,2013-01-21 13:02:00,
2013-01-21 06:13:00,18.0,-6.0,-100.00,NE,35,8.0,12.0,33,0.00,,,-99.99,,2013-01-21 13:13:00,
2013-01-21 06:23:00,18.0,-6.0,-100.00,NE,35,8.0,12.0,33,0.00,,,-99.99,,2013-01-21 13:23:00,
2013-01-21 06:33:00,19.0,-5.0,-100.00,NNE,30,7.0,14.0,33,0.00,,,-99.99,,2013-01-21 13:33:00,
2013-01-21 06:43:00,20.0,-4.0,-100.00,ENE,70,6.0,17.0,33,0.00,,,-99.99,,2013-01-21 13:43:00,
2013-01-21 06:53:00,21.0,-4.0,-100.00,NNE,30,6.0,14.0,33,0.00,,,-99.99,,2013-01-21 13:53:00,
2013-01-21 07:03:00,19.0,-5.0,-100.00,WNW,295,2.0,7.0,33,0.00,,,-99.99,,2013-01-21 14:03:00,
2013-01-21 07:12:00,20.0,-4.0,-100.00,East,85,4.0,9.0,33,0.00,,,-99.99,,2013-01-21 14:12:00,
2013-01-21 07:23:00,18.0,-6.0,-100.00,WNW,285,4.0,7.0,33,0.00,,,-99.99,,2013-01-21 14:23:00,
2013-01-21 07:32:00,18.0,-5.0,-100.00,NW,320,4.0,6.0,33,0.00,,,-99.99,,2013-01-21 14:32:00,
2013-01-21 07:43:00,18.0,-6.0,-100.00,NNE,15,4.0,9.0,33,0.00,,,-99.99,,2013-01-21 14:43:00,
2013-01-21 07:53:00,18.0,-6.0,-100.00,SSW,195,3.0,6.0,33,0.00,,,-99.99,,2013-01-21 14:53:00,
2013-01-21 08:03:00,22.0,-3.0,-100.00,ESE,105,3.0,7.0,33,0.00,,,-99.99,,2013-01-21 15:03:00,
2013-01-21 08:13:00,21.0,-3.0,-100.00,ESE,120,4.0,6.0,32,0.00,,,-99.99,,2013-01-21 15:13:00,
2013-01-21 08:23:00,22.0,-2.0,-100.00,NE,45,5.0,9.0,32,0.00,,,-99.99,,2013-01-21 15:23:00,
2013-01-21 08:33:00,23.0,-2.0,-100.00,NE,50,11.0,14.0,32,0.00,,,-99.99,,2013-01-21 15:33:00,
2013-01-21 08:43:00,25.0,0.0,-100.00,East,85,5.0,16.0,32,0.00,,,-99.99,,2013-01-21 15:43:00,
2013-01-21 08:53:00,24.0,-1.0,-100.00,East,80,9.0,17.0,33,0.00,,,-99.99,,2013-01-21 15:53:00,
2013-01-21 09:03:00,26.0,1.0,-100.00,East,100,7.0,17.0,32,0.00,,,-99.99,,2013-01-21 16:03:00,
2013-01-21 09:12:00,25.0,0.0,-100.00,ENE,60,9.0,18.0,33,0.00,,,-99.99,,2013-01-21 16:12:00,
2013-01-21 09:23:00,26.0,1.0,-100.00,ENE,75,8.0,15.0,33,0.00,,,-99.99,,2013-01-21 16:23:00,
2013-01-21 09:33:00,26.0,1.0,-100.00,ENE,75,8.0,15.0,33,0.00,,,-99.99,,2013-01-21 16:33:00,
2013-01-21 09:43:00,27.0,2.0,-100.00,ENE,70,12.0,18.0,32,0.00,,,-99.99,,2013-01-21 16:43:00,
2013-01-21 09:53:00,28.0,2.0,-100.00,ENE,65,16.0,21.0,32,0.00,,,-99.99,,2013-01-21 16:53:00,
2013-01-21 10:02:00,28.0,3.0,-100.00,ENE,60,17.0,22.0,33,0.00,,,-99.99,,2013-01-21 17:02:00,
2013-01-21 10:12:00,30.0,5.0,-100.00,North,5,19.0,25.0,33,0.00,,,-99.99,,2013-01-21 17:12:00,
2013-01-21 10:22:00,31.0,6.0,-100.00,NNE,15,15.0,23.0,32,0.00,,,-99.99,,2013-01-21 17:22:00,
2013-01-21 10:33:00,30.0,4.0,-100.00,ENE,70,10.0,29.0,31,0.00,,,-99.99,,2013-01-21 17:33:00,
2013-01-21 10:43:00,32.0,5.0,-100.00,NNE,15,20.0,25.0,31,0.00,,,-99.99,,2013-01-21 17:43:00,
2013-01-21 10:52:00,31.0,4.0,-100.00,NNE,30,16.0,32.0,31,0.00,,,-99.99,,2013-01-21 17:52:00,
2013-01-21 11:03:00,30.0,4.0,-100.00,NE,45,17.0,32.0,31,0.00,,,-99.99,,2013-01-21 18:03:00,
2013-01-21 11:12:00,30.0,4.0,-100.00,NE,45,17.0,32.0,31,0.00,,,-99.99,,2013-01-21 18:12:00,
2013-01-21 11:22:00,33.0,5.0,-100.00,North,10,19.0,31.0,30,0.00,,,-99.99,,2013-01-21 18:22:00,
2013-01-21 11:33:00,35.0,6.0,-100.00,NNE,25,6.0,29.0,28,0.00,,,-99.99,,2013-01-21 18:33:00,
2013-01-21 11:42:00,33.0,4.0,-100.00,NE,45,9.0,22.0,29,0.00,,,-99.99,,2013-01-21 18:42:00,
2013-01-21 11:53:00,33.0,5.0,-100.00,NNE,30,19.0,25.0,30,0.00,,,-99.99,,2013-01-21 18:53:00,
2013-01-21 12:03:00,34.0,5.0,-100.00,NNE,15,19.0,39.0,28,0.00,,,-99.99,,2013-01-21 19:03:00,
2013-01-21 12:12:00,33.0,5.0,-100.00,NE,40,16.0,27.0,30,0.00,,,-99.99,,2013-01-21 19:12:00,
2013-01-21 12:22:00,34.0,6.0,-100.00,North,0,17.0,23.0,29,0.00,,,-99.99,,2013-01-21 19:22:00,
2013-01-21 12:33:00,34.0,6.0,-100.00,NE,35,18.0,29.0,29,0.00,,,-99.99,,2013-01-21 19:33:00,
2013-01-21 12:42:00,35.0,6.0,-100.00,NE,35,9.0,20.0,28,0.00,,,-99.99,,2013-01-21 19:42:00,
2013-01-21 12:53:00,36.0,6.0,-100.00,North,5,14.0,20.0,28,0.00,,,-99.99,,2013-01-21 19:53:00,
2013-01-21 13:03:00,37.0,6.0,-100.00,NNE,15,12.0,17.0,27,0.00,,,-99.99,,2013-01-21 20:03:00,
2013-01-21 13:12:00,37.0,6.0,-100.00,NNE,20,11.0,18.0,27,0.00,,,-99.99,,2013-01-21 20:12:00,
2013-01-21 13:22:00,37.0,7.0,-100.00,North,10,10.0,16.0,27,0.00,,,-99.99,,2013-01-21 20:22:00,
2013-01-21 13:33:00,37.0,6.0,-100.00,North,10,12.0,16.0,27,0.00,,,-99.99,,2013-01-21 20:33:00,
2013-01-21 13:43:00,37.0,6.0,-100.00,North,5,11.0,16.0,26,0.00,,,-99.99,,2013-01-21 20:43:00,
2013-01-21 13:53:00,38.0,7.0,-100.00,NNE,20,11.0,14.0,26,0.00,,,-99.99,,2013-01-21 20:53:00,
2013-01-21 14:03:00,38.0,7.0,-100.00,North,5,9.0,14.0,26,0.00,,,-99.99,,2013-01-21 21:03:00,
2013-01-21 14:12:00,40.0,8.0,-100.00,North,5,7.0,12.0,26,0.00,,,-99.99,,2013-01-21 21:12:00,
2013-01-21 14:22:00,37.0,6.0,-100.00,NNW,345,13.0,23.0,27,0.00,,,-99.99,,2013-01-21 21:22:00,
2013-01-21 14:33:00,37.0,6.0,-100.00,North,350,11.0,20.0,26,0.00,,,-99.99,,2013-01-21 21:33:00,
2013-01-21 14:43:00,38.0,6.0,-100.00,NNE,25,7.0,13.0,25,0.00,,,-99.99,,2013-01-21 21:43:00,
2013-01-21 14:53:00,35.0,4.0,-100.00,NE,55,8.0,12.0,26,0.00,,,-99.99,,2013-01-21 21:53:00,
2013-01-21 15:03:00,37.0,6.0,-100.00,NE,40,9.0,12.0,26,0.00,,,-99.99,,2013-01-21 22:03:00,
2013-01-21 15:12:00,37.0,6.0,-100.00,NE,40,9.0,12.0,26,0.00,,,-99.99,,2013-01-21 22:12:00,
2013-01-21 15:23:00,35.0,5.0,-100.00,East,80,9.0,14.0,27,0.00,,,-99.99,,2013-01-21 22:23:00,
2013-01-21 15:33:00,34.0,5.0,-100.00,ENE,60,9.0,14.0,28,0.00,,,-99.99,,2013-01-21 22:33:00,
2013-01-21 15:43:00,35.0,5.0,-100.00,NE,45,9.0,11.0,28,0.00,,,-99.99,,2013-01-21 22:43:00,
2013-01-21 15:53:00,34.0,4.0,-100.00,NE,55,9.0,14.0,27,0.00,,,-99.99,,2013-01-21 22:53:00,
2013-01-21 16:03:00,35.0,5.0,-100.00,NE,40,7.0,12.0,27,0.00,,,-99.99,,2013-01-21 23:03:00,
2013-01-21 16:12:00,34.0,4.0,-100.00,NNE,25,12.0,16.0,28,0.00,,,-99.99,,2013-01-21 23:12:00,
2013-01-21 16:22:00,33.0,4.0,-100.00,NNE,30,11.0,14.0,28,0.00,,,-99.99,,2013-01-21 23:22:00,
2013-01-21 16:33:00,33.0,3.0,-100.00,NNE,15,11.0,15.0,27,0.00,,,-99.99,,2013-01-21 23:33:00,
2013-01-21 16:42:00,32.0,3.0,-100.00,NNE,25,11.0,15.0,28,0.00,,,-99.99,,2013-01-21 23:42:00,
2013-01-21 16:53:00,31.0,2.0,-100.00,NE,50,12.0,17.0,28,0.00,,,-99.99,,2013-01-21 23:53:00,
2013-01-21 17:02:00,30.0,1.0,-100.00,NE,40,14.0,18.0,28,0.00,,,-99.99,,2013-01-22 00:02:00,
2013-01-21 17:12:00,29.0,1.0,-100.00,NNE,25,15.0,20.0,28,0.00,,,-99.99,,2013-01-22 00:12:00,
2013-01-21 17:22:00,28.0,-1.0,-100.00,NNE,30,9.0,17.0,28,0.00,,,-99.99,,2013-01-22 00:22:00,
2013-01-21 17:33:00,28.0,-1.0,-100.00,NNE,25,9.0,14.0,28,0.00,,,-99.99,,2013-01-22 00:33:00,
2013-01-21 17:42:00,27.0,-1.0,-100.00,NNE,30,9.0,13.0,28,0.00,,,-99.99,,2013-01-22 00:42:00,
2013-01-21 17:53:00,28.0,-1.0,-100.00,NNE,30,4.0,12.0,26,0.00,,,-99.99,,2013-01-22 00:53:00,
2013-01-21 18:02:00,26.0,-2.0,-100.00,NE,45,9.0,11.0,28,0.00,,,-99.99,,2013-01-22 01:02:00,
2013-01-21 18:12:00,28.0,-2.0,-100.00,NE,45,6.0,14.0,27,0.00,,,-99.99,,2013-01-22 01:12:00,
2013-01-21 18:23:00,26.0,-3.0,-100.00,NE,35,6.0,14.0,28,0.00,,,-99.99,,2013-01-22 01:23:00,
2013-01-21 18:32:00,23.0,-4.0,-100.00,NNE,25,7.0,15.0,29,0.00,,,-99.99,,2013-01-22 01:32:00,
2013-01-21 18:42:00,24.0,-3.0,-100.00,NNW,330,4.0,9.0,29,0.00,,,-99.99,,2013-01-22 01:42:00,
2013-01-21 18:52:00,25.0,-3.0,-100.00,NNW,335,7.0,12.0,28,0.00,,,-99.99,,2013-01-22 01:52:00,
2013-01-21 19:02:00,24.0,-4.0,-100.00,North,10,12.0,16.0,28,0.00,,,-99.99,,2013-01-22 02:02:00,
2013-01-21 19:12:00,25.0,-3.0,-100.00,North,10,7.0,14.0,28,0.00,,,-99.99,,2013-01-22 02:12:00,
2013-01-21 19:22:00,25.0,-3.0,-100.00,North,10,7.0,14.0,28,0.00,,,-99.99,,2013-01-22 02:22:00,
2013-01-21 19:32:00,26.0,-3.0,-100.00,NNE,30,9.0,17.0,28,0.00,,,-99.99,,2013-01-22 02:32:00,
2013-01-21 19:43:00,25.0,-3.0,-100.00,North,10,14.0,21.0,28,0.00,,,-99.99,,2013-01-22 02:43:00,
2013-01-21 19:53:00,24.0,-4.0,-100.00,NNE,15,12.0,17.0,29,0.00,,,-99.99,,2013-01-22 02:53:00,
2013-01-21 20:02:00,23.0,-4.0,-100.00,NNE,25,14.0,18.0,29,0.00,,,-99.99,,2013-01-22 03:02:00,
2013-01-21 20:12:00,23.0,-3.0,-100.00,NNE,25,12.0,20.0,30,0.00,,,-99.99,,2013-01-22 03:12:00,
2013-01-21 20:22:00,21.0,-4.0,-100.00,NNE,15,7.0,17.0,31,0.00,,,-99.99,,2013-01-22 03:22:00,
2013-01-21 20:32:00,21.0,-4.0,-100.00,NNE,25,11.0,14.0,31,0.00,,,-99.99,,2013-01-22 03:32:00,
2013-01-21 20:42:00,20.0,-5.0,-100.00,WNW,285,6.0,12.0,31,0.00,,,-99.99,,2013-01-22 03:42:00,
2013-01-21 20:52:00,20.0,-5.0,-100.00,West,270,7.0,11.0,31,0.00,,,-99.99,,2013-01-22 03:52:00,
2013-01-21 21:02:00,19.0,-6.0,-100.00,North,5,5.0,10.0,31,0.00,,,-99.99,,2013-01-22 04:02:00,
2013-01-21 21:12:00,17.0,-8.0,-100.00,WNW,285,7.0,11.0,31,0.00,,,-99.99,,2013-01-22 04:12:00,
2013-01-21 21:22:00,16.0,-8.0,-100.00,North,5,6.0,9.0,32,0.00,,,-99.99,,2013-01-22 04:22:00,
2013-01-21 21:32:00,17.0,-8.0,-100.00,NNE,20,9.0,13.0,32,0.00,,,-99.99,,2013-01-22 04:32:00,
2013-01-21 21:42:00,17.0,-7.0,-100.00,NE,35,12.0,15.0,32,0.00,,,-99.99,,2013-01-22 04:42:00,
2013-01-21 21:52:00,19.0,-6.0,-100.00,NNE,15,6.0,13.0,32,0.00,,,-99.99,,2013-01-22 04:52:00,
2013-01-21 22:04:00,19.0,-6.0,-100.00,NNE,20,9.0,10.0,31,0.00,,,-99.99,,2013-01-22 05:04:00,
2013-01-21 22:12:00,20.0,-6.0,-100.00,NE,35,12.0,14.0,30,0.00,,,-99.99,,2013-01-22 05:12:00,
2013-01-21 22:22:00,21.0,-6.0,-100.00,NW,325,7.0,14.0,29,0.00,,,-99.99,,2013-01-22 05:22:00,
2013-01-21 22:42:00,21.0,-6.0,-100.00,NE,35,12.0,17.0,29,0.00,,,-99.99,,2013-01-22 05:42:00,
2013-01-21 22:52:00,22.0,-6.0,-100.00,NNE,30,14.0,17.0,28,0.00,,,-99.99,,2013-01-22 05:52:00,
2013-01-21 23:02:00,24.0,-5.0,-100.00,NE,40,14.0,17.0,27,0.00,,,-99.99,,2013-01-22 06:02:00,
2013-01-21 23:12:00,24.0,-5.0,-100.00,NNE,25,11.0,15.0,26,0.00,,,-99.99,,2013-01-22 06:12:00,
2013-01-21 23:22:00,24.0,-5.0,-100.00,NNE,15,11.0,19.0,26,0.00,,,-99.99,,2013-01-22 06:22:00,
2013-01-21 23:32:00,24.0,-6.0,-100.00,NNE,25,14.0,17.0,26,0.00,,,-99.99,,2013-01-22 06:32:00,
2013-01-21 23:42:00,24.0,-5.0,-100.00,North,350,12.0,19.0,26,0.00,,,-99.99,,2013-01-22 06:42:00,
2013-01-21 23:52:00,21.0,-8.0,-100.00,NW,315,11.0,14.0,27,0.00,,,-99.99,,2013-01-22 06:52:00,